Time;durP1;ratioP1;P1;durP2;ratioP2;P2;SDS_P1;SDS_P2;PMS_P1;PMS_P2;Temp;Humidity;BMP_temperature;BMP_pressure;BME280_temperature;BME280_humidity;BME280_pressure;Samples;Min_cycle;Max_cycle;Signal;HPM_P1;HPM_P2
2022/08/13 00:00:30;;;;;;;0.00;0.00;;;;;;;15.74;83.77;101573.13;4963134;28;20228;-71
2022/08/13 00:02:56;;;;;;;0.00;0.00;;;;;;;15.72;83.01;101575.13;4965358;28;20030;-71
2022/08/13 00:05:23;;;;;;;0.00;0.00;;;;;;;15.84;82.53;101585.88;4960857;28;20557;-71
2022/08/13 00:07:50;;;;;;;0.05;0.05;;;;;;;16.00;81.38;101594.34;4964383;28;20056;-71
2022/08/13 00:10:23;;;;;;;0.00;0.00;;;;;;;15.99;82.21;101600.78;4960003;28;20154;-71
2022/08/13 00:12:57;;;;;;;0.00;0.00;;;;;;;16.01;81.64;101600.66;4960348;28;20400;-72
2022/08/13 00:15:28;;;;;;;0.00;0.00;;;;;;;16.00;82.14;101596.22;4958265;28;20031;-70
2022/08/13 00:17:57;;;;;;;0.00;0.00;;;;;;;16.00;81.52;101605.19;4955946;28;20026;-70
2022/08/13 00:20:25;;;;;;;0.00;0.00;;;;;;;16.07;81.85;101599.25;4963683;28;20034;-72
2022/08/13 00:22:50;;;;;;;0.00;0.00;;;;;;;16.07;81.71;101602.78;4957787;28;20022;-70
2022/08/13 00:25:16;;;;;;;0.00;0.00;;;;;;;16.01;81.93;101601.50;4952387;28;20046;-76
2022/08/13 00:27:47;;;;;;;0.00;0.00;;;;;;;15.89;82.17;101594.47;4956832;28;20038;-70
2022/08/13 00:30:15;;;;;;;0.00;0.00;;;;;;;15.84;82.22;101605.66;4956822;28;20041;-70
2022/08/13 00:32:42;;;;;;;0.00;0.00;;;;;;;15.76;82.33;101600.06;4961329;28;20027;-71
2022/08/13 00:35:07;;;;;;;0.10;0.00;;;;;;;15.69;82.48;101605.16;4959198;28;20113;-70
2022/08/13 00:37:33;;;;;;;0.00;0.00;;;;;;;15.67;81.84;101596.31;4960987;28;20031;-70
2022/08/13 00:39:58;;;;;;;0.00;0.00;;;;;;;15.68;82.64;101594.47;4960403;28;20053;-70
2022/08/13 00:42:27;;;;;;;0.00;0.00;;;;;;;15.72;81.37;101594.06;4961982;28;20517;-70
2022/08/13 00:44:52;;;;;;;0.00;0.00;;;;;;;15.64;82.15;101593.03;4955790;28;20078;-70
2022/08/13 00:50:04;;;;;;;0.00;0.00;;;;;;;15.55;82.37;101597.41;4965168;28;20041;-70
2022/08/13 00:52:40;;;;;;;0.00;0.00;;;;;;;15.54;82.10;101595.69;4964352;28;20463;-70
2022/08/13 00:55:09;;;;;;;0.00;0.00;;;;;;;15.40;82.63;101592.31;4960590;28;20034;-71
2022/08/13 00:57:35;;;;;;;0.00;0.00;;;;;;;15.44;82.99;101604.59;4958363;28;20106;-70
2022/08/13 01:00:13;;;;;;;0.00;0.00;;;;;;;15.38;83.50;101602.41;4964702;28;20486;-70
2022/08/13 01:02:44;;;;;;;0.00;0.00;;;;;;;15.32;83.33;101605.66;4955907;28;20034;-70
2022/08/13 01:05:10;;;;;;;0.00;0.00;;;;;;;15.25;83.78;101593.66;4954577;28;20045;-70
2022/08/13 01:07:37;;;;;;;0.00;0.00;;;;;;;15.24;83.92;101591.94;4956920;28;20031;-70
2022/08/13 01:10:04;;;;;;;0.00;0.00;;;;;;;15.26;82.87;101601.63;4957373;28;20038;-70
2022/08/13 01:12:30;;;;;;;0.00;0.00;;;;;;;15.25;82.97;101602.59;4953467;28;20169;-72
2022/08/13 01:14:57;;;;;;;0.00;0.00;;;;;;;15.20;83.25;101604.88;4959374;28;20127;-72
2022/08/13 01:17:23;;;;;;;0.00;0.00;;;;;;;15.18;82.95;101603.28;4956262;28;20030;-70
2022/08/13 01:19:50;;;;;;;0.00;0.00;;;;;;;15.16;82.71;101606.13;4959653;28;20037;-70
2022/08/13 01:22:15;;;;;;;0.00;0.00;;;;;;;15.09;82.75;101594.97;4960238;28;20471;-70
2022/08/13 01:24:41;;;;;;;0.00;0.00;;;;;;;15.02;83.09;101599.19;4960695;28;20434;-70
2022/08/13 01:27:09;;;;;;;0.08;0.08;;;;;;;15.02;83.46;101604.59;4953384;28;20062;-70
2022/08/13 01:29:36;;;;;;;0.00;0.00;;;;;;;14.98;83.08;101601.28;4954150;28;20462;-71
2022/08/13 01:32:02;;;;;;;0.00;0.00;;;;;;;14.97;82.99;101604.13;4952281;28;20031;-70
2022/08/13 01:34:31;;;;;;;0.00;0.00;;;;;;;14.93;83.51;101611.66;4959482;28;20384;-70
2022/08/13 01:36:56;;;;;;;0.00;0.00;;;;;;;14.88;84.26;101611.16;4958884;28;20110;-70
2022/08/13 01:39:22;;;;;;;0.00;0.00;;;;;;;14.82;84.01;101599.03;4959500;28;20121;-70
2022/08/13 01:41:48;;;;;;;0.00;0.00;;;;;;;14.67;83.88;101592.16;4957850;28;20134;-70
2022/08/13 01:44:14;;;;;;;0.00;0.00;;;;;;;14.74;83.89;101603.34;4953968;28;20546;-70
2022/08/13 01:52:09;;;;;;;0.00;0.00;;;;;;;14.66;84.34;101606.66;4964136;28;20401;-70
2022/08/13 01:54:36;;;;;;;0.00;0.00;;;;;;;14.65;84.61;101613.03;4962243;28;20035;-70
2022/08/13 01:57:05;;;;;;;0.00;0.00;;;;;;;14.62;84.98;101616.00;4963884;28;20054;-70
2022/08/13 01:59:32;;;;;;;0.00;0.00;;;;;;;14.60;84.76;101604.44;4961011;28;20046;-70
2022/08/13 02:01:57;;;;;;;0.00;0.00;;;;;;;14.57;85.32;101610.97;4962398;28;20097;-70
2022/08/13 02:04:23;;;;;;;0.00;0.00;;;;;;;14.52;85.92;101615.91;4957397;28;20030;-70
2022/08/13 02:06:48;;;;;;;0.00;0.00;;;;;;;14.47;85.78;101604.59;4962080;28;20114;-70
2022/08/13 02:09:14;;;;;;;0.00;0.00;;;;;;;14.48;85.58;101611.72;4964397;28;20035;-72
2022/08/13 02:11:41;;;;;;;0.03;0.03;;;;;;;14.44;86.01;101600.34;4963193;28;20395;-70
2022/08/13 02:14:07;;;;;;;0.00;0.00;;;;;;;14.43;85.94;101613.97;4961265;28;20026;-71
2022/08/13 02:16:35;;;;;;;0.00;0.00;;;;;;;14.38;85.58;101606.22;4961675;28;20038;-70
2022/08/13 02:19:02;;;;;;;0.00;0.00;;;;;;;14.23;85.79;101598.41;4965515;28;20027;-72
2022/08/13 02:21:32;;;;;;;0.00;0.00;;;;;;;14.25;86.45;101612.66;4961881;28;20440;-70
2022/08/13 02:23:58;;;;;;;0.00;0.00;;;;;;;14.07;86.51;101581.72;4967307;28;20049;-70
2022/08/13 02:26:27;;;;;;;0.00;0.00;;;;;;;14.15;86.95;101605.41;4959641;28;20479;-70
2022/08/13 02:28:54;;;;;;;0.00;0.00;;;;;;;14.12;86.56;101605.66;4958711;28;20147;-70
2022/08/13 02:31:19;;;;;;;0.00;0.00;;;;;;;14.10;86.62;101609.34;4959277;28;20035;-71
2022/08/13 02:33:46;;;;;;;0.00;0.00;;;;;;;14.07;86.52;101614.13;4960814;28;20613;-72
2022/08/13 02:36:11;;;;;;;0.00;0.00;;;;;;;13.84;86.53;101581.72;4963350;28;20030;-70
2022/08/13 02:38:37;;;;;;;0.00;0.00;;;;;;;13.94;86.16;101593.53;4960323;28;20023;-70
2022/08/13 02:43:50;;;;;;;0.00;0.00;;;;;;;13.97;86.12;101613.16;4959440;28;20041;-71
2022/08/13 02:46:16;;;;;;;0.05;0.05;;;;;;;13.95;86.08;101616.84;4961098;28;20022;-72
2022/08/13 02:48:42;;;;;;;0.10;0.10;;;;;;;13.86;86.22;101589.72;4960704;28;20081;-72
2022/08/13 02:51:10;;;;;;;0.00;0.00;;;;;;;13.97;86.57;101602.34;4965514;28;20394;-72
2022/08/13 02:53:37;;;;;;;0.00;0.00;;;;;;;13.99;86.40;101606.63;4962760;28;20030;-72
2022/08/13 02:56:05;;;;;;;0.00;0.00;;;;;;;13.99;86.53;101605.78;4964458;28;20035;-72
2022/08/13 02:58:30;;;;;;;0.00;0.00;;;;;;;13.87;86.18;101597.69;4960068;28;20034;-71
2022/08/13 03:00:57;;;;;;;0.00;0.00;;;;;;;13.86;86.36;101600.53;4961078;28;20026;-71
2022/08/13 03:03:22;;;;;;;0.00;0.00;;;;;;;13.87;86.49;101604.94;4959211;28;20054;-72
2022/08/13 03:05:47;;;;;;;0.00;0.00;;;;;;;13.88;86.39;101607.50;4956331;28;20122;-71
2022/08/13 03:08:13;;;;;;;0.00;0.00;;;;;;;13.67;86.84;101576.84;4963820;28;20423;-71
2022/08/13 03:10:40;;;;;;;0.00;0.00;;;;;;;13.81;86.92;101598.16;4961712;28;20550;-71
2022/08/13 03:13:24;;;;;;;0.00;0.00;;;;;;;13.78;86.29;101601.97;4963886;28;20134;-72
2022/08/13 03:15:52;;;;;;;0.10;0.10;;;;;;;13.67;87.34;101609.22;4945343;28;20426;-71
2022/08/13 03:18:18;;;;;;;0.00;0.00;;;;;;;13.61;87.35;101605.16;4963447;28;20744;-71
2022/08/13 03:20:43;;;;;;;0.00;0.00;;;;;;;13.61;87.53;101606.00;4959421;28;20046;-71
2022/08/13 03:23:09;;;;;;;0.00;0.00;;;;;;;13.60;87.56;101611.53;4957887;28;20116;-71
2022/08/13 03:25:36;;;;;;;0.00;0.00;;;;;;;13.56;87.45;101608.22;4956617;28;20031;-72
2022/08/13 03:28:01;;;;;;;0.00;0.00;;;;;;;13.53;87.49;101611.13;4955180;28;20038;-72
2022/08/13 03:30:28;;;;;;;0.08;0.08;;;;;;;13.47;87.54;101615.19;4961192;28;20417;-72
2022/08/13 03:32:55;;;;;;;0.00;0.00;;;;;;;13.44;87.47;101607.31;4959123;28;20058;-73
2022/08/13 03:35:23;;;;;;;0.00;0.00;;;;;;;13.50;87.84;101623.03;4958567;28;20068;-72
2022/08/13 03:37:55;;;;;;;0.00;0.00;;;;;;;13.47;87.29;101611.66;4962976;28;20632;-71
2022/08/13 03:40:25;;;;;;;0.00;0.00;;;;;;;13.47;87.04;101619.75;4965608;28;20031;-71
2022/08/13 03:42:52;;;;;;;0.00;0.00;;;;;;;13.50;87.09;101611.41;4961055;28;20164;-72
2022/08/13 03:45:21;;;;;;;0.00;0.00;;;;;;;13.46;87.14;101615.31;4964262;28;20039;-71
2022/08/13 03:47:46;;;;;;;0.00;0.00;;;;;;;13.45;87.15;101610.91;4961267;28;20035;-71
2022/08/13 03:50:13;;;;;;;0.00;0.00;;;;;;;13.40;87.46;101615.75;4962142;28;20038;-71
2022/08/13 03:52:39;;;;;;;0.00;0.00;;;;;;;13.25;87.52;101585.44;4954317;28;20383;-71
2022/08/13 03:55:11;;;;;;;0.00;0.00;;;;;;;13.28;87.18;101599.53;4963141;28;20026;-71
2022/08/13 03:57:40;;;;;;;0.00;0.00;;;;;;;13.37;86.85;101610.59;4960098;28;20486;-71
2022/08/13 04:00:11;;;;;;;0.00;0.00;;;;;;;13.34;87.49;101606.31;4963747;28;20038;-71
2022/08/13 04:02:40;;;;;;;0.00;0.00;;;;;;;13.33;87.14;101604.59;4952490;28;20031;-71
2022/08/13 04:05:08;;;;;;;0.00;0.00;;;;;;;13.35;86.95;101608.88;4956959;28;20033;-71
2022/08/13 04:07:33;;;;;;;0.00;0.00;;;;;;;13.35;86.75;101608.03;4962610;28;20408;-71
2022/08/13 04:09:59;;;;;;;0.00;0.00;;;;;;;13.34;86.71;101609.84;4960303;28;20125;-71
2022/08/13 04:12:24;;;;;;;0.00;0.00;;;;;;;13.36;86.65;101612.44;4953820;28;20117;-71
2022/08/13 04:14:50;;;;;;;0.00;0.00;;;;;;;13.34;86.54;101609.84;4960686;28;20031;-71
2022/08/13 04:17:15;;;;;;;0.00;0.00;;;;;;;13.32;86.49;101592.94;4959113;28;20053;-71
2022/08/13 04:19:41;;;;;;;0.00;0.00;;;;;;;13.27;86.64;101602.38;4956658;28;20035;-71
2022/08/13 04:22:07;;;;;;;0.00;0.00;;;;;;;13.07;86.60;101576.94;4959061;28;20045;-71
2022/08/13 04:24:33;;;;;;;0.20;0.10;;;;;;;13.11;86.95;101603.53;4949730;28;20066;-71
2022/08/13 04:27:00;;;;;;;0.00;0.00;;;;;;;13.08;87.24;101611.00;4955709;28;20042;-71
2022/08/13 04:29:25;;;;;;;0.00;0.00;;;;;;;13.09;87.24;101618.09;4956320;28;20098;-71
2022/08/13 04:31:52;;;;;;;0.00;0.00;;;;;;;13.16;87.17;101609.44;4956712;28;20132;-69
2022/08/13 04:34:19;;;;;;;0.00;0.00;;;;;;;13.22;87.20;101609.94;4952674;28;20035;-69
2022/08/13 04:36:45;;;;;;;0.00;0.00;;;;;;;13.14;87.24;101615.94;4957042;28;20338;-69
2022/08/13 04:39:10;;;;;;;0.00;0.00;;;;;;;13.02;87.82;101623.97;4958990;28;20053;-70
2022/08/13 04:41:35;;;;;;;0.00;0.00;;;;;;;12.98;87.98;101624.31;4954324;28;20113;-69
2022/08/13 04:44:01;;;;;;;0.00;0.00;;;;;;;13.03;87.68;101628.38;4953019;28;20053;-70
2022/08/13 04:46:26;;;;;;;0.00;0.00;;;;;;;13.04;87.84;101623.88;4956957;28;20031;-69
2022/08/13 04:48:52;;;;;;;0.00;0.00;;;;;;;13.07;87.66;101620.94;4959134;28;20027;-69
2022/08/13 04:51:17;;;;;;;0.00;0.00;;;;;;;12.92;87.85;101589.75;4958824;28;20447;-69
2022/08/13 04:53:43;;;;;;;0.00;0.00;;;;;;;13.05;88.14;101622.88;4958038;28;20031;-69
2022/08/13 04:56:09;;;;;;;0.00;0.00;;;;;;;13.10;87.96;101631.50;4959281;28;20073;-69
2022/08/13 04:58:36;;;;;;;0.00;0.00;;;;;;;13.10;88.06;101619.84;4960287;28;20041;-69
2022/08/13 05:01:09;;;;;;;0.05;0.05;;;;;;;13.22;88.06;101639.59;4961158;28;20069;-69
2022/08/13 05:03:39;;;;;;;0.00;0.00;;;;;;;13.26;88.35;101635.69;4956075;28;20026;-69
2022/08/13 05:06:06;;;;;;;0.00;0.00;;;;;;;13.28;88.13;101626.50;4952959;28;20035;-69
2022/08/13 05:08:32;;;;;;;0.00;0.00;;;;;;;13.29;88.25;101630.91;4955665;28;20054;-69
2022/08/13 05:10:57;;;;;;;0.00;0.00;;;;;;;13.33;87.84;101627.00;4958842;28;20134;-69
2022/08/13 05:13:30;;;;;;;0.00;0.00;;;;;;;13.37;87.93;101633.06;4953308;28;20487;-69
2022/08/13 05:15:58;;;;;;;0.00;0.00;;;;;;;13.40;88.67;101632.78;4959672;28;20239;-69
2022/08/13 05:18:25;;;;;;;0.00;0.00;;;;;;;13.46;88.29;101636.91;4961530;28;20054;-69
2022/08/13 05:20:53;;;;;;;0.00;0.00;;;;;;;13.58;88.31;101638.63;4959752;28;20035;-69
2022/08/13 05:23:19;;;;;;;0.03;0.03;;;;;;;13.64;88.39;101632.75;4955614;28;20026;-69
2022/08/13 05:25:44;;;;;;;0.00;0.00;;;;;;;13.80;88.07;101645.03;4962393;28;20031;-69
2022/08/13 05:28:10;;;;;;;0.00;0.00;;;;;;;13.88;87.78;101645.28;4955207;28;20037;-69
2022/08/13 05:30:38;;;;;;;0.10;0.10;;;;;;;13.84;88.38;101624.06;4958081;28;20054;-69
2022/08/13 05:33:14;;;;;;;0.00;0.00;;;;;;;14.05;87.83;101641.25;4964778;28;20039;-69
2022/08/13 05:35:44;;;;;;;0.05;0.05;;;;;;;14.20;87.55;101639.16;4964106;28;20466;-69
2022/08/13 05:38:10;;;;;;;0.00;0.00;;;;;;;14.32;88.41;101631.03;4959620;28;20054;-69
2022/08/13 05:40:35;;;;;;;0.00;0.00;;;;;;;14.48;87.81;101636.94;4959506;28;20022;-69
2022/08/13 05:43:02;;;;;;;0.00;0.00;;;;;;;14.54;87.82;101622.03;4961660;28;20110;-69
2022/08/13 05:45:27;;;;;;;0.00;0.00;;;;;;;14.81;87.34;101632.47;4960279;28;20042;-69
2022/08/13 05:47:53;;;;;;;0.00;0.00;;;;;;;14.98;87.20;101627.47;4962557;28;20046;-69
2022/08/13 05:50:18;;;;;;;0.10;0.10;;;;;;;15.11;86.94;101619.16;4963142;28;20062;-69
2022/08/13 05:52:43;;;;;;;0.00;0.00;;;;;;;15.36;86.58;101630.59;4958097;28;20123;-69
2022/08/13 05:55:13;;;;;;;0.00;0.00;;;;;;;15.47;85.79;101622.44;4962621;28;20074;-69
2022/08/13 05:57:39;;;;;;;0.00;0.00;;;;;;;15.67;85.51;101617.97;4956627;28;20071;-69
2022/08/13 06:05:38;;;;;;;0.10;0.10;;;;;;;16.49;84.02;101632.44;4958616;28;20070;-69
2022/08/13 06:08:05;;;;;;;0.40;0.00;;;;;;;16.73;83.21;101635.75;4959457;28;20501;-69
2022/08/13 06:10:30;;;;;;;0.00;0.00;;;;;;;16.96;83.69;101632.81;4960048;28;20027;-69
2022/08/13 06:12:56;;;;;;;0.05;0.05;;;;;;;17.24;83.79;101639.25;4958466;28;20038;-69
2022/08/13 06:15:22;;;;;;;0.00;0.00;;;;;;;17.57;83.48;101628.03;4968310;28;20066;-69
2022/08/13 06:17:49;;;;;;;0.00;0.00;;;;;;;17.89;81.46;101633.09;4966590;28;20498;-69
2022/08/13 06:20:16;;;;;;;0.00;0.00;;;;;;;18.21;80.60;101628.28;4967134;28;20030;-69
2022/08/13 06:22:42;;;;;;;0.00;0.00;;;;;;;18.44;78.62;101626.00;4959764;28;20510;-69
2022/08/13 06:25:08;;;;;;;0.00;0.00;;;;;;;18.70;77.95;101628.84;4959117;28;20097;-69
2022/08/13 06:27:33;;;;;;;0.00;0.00;;;;;;;19.01;76.32;101633.06;4964884;28;20109;-69
2022/08/13 06:29:59;;;;;;;0.00;0.00;;;;;;;19.15;72.45;101612.59;4969083;28;20153;-69
2022/08/13 06:32:24;;;;;;;0.00;0.00;;;;;;;19.52;69.68;101629.72;4958910;28;20034;-68
2022/08/13 06:34:51;;;;;;;0.00;0.00;;;;;;;19.72;68.59;101630.38;4963510;28;20035;-69
2022/08/13 06:37:17;;;;;;;0.00;0.00;;;;;;;19.97;67.12;101631.41;4964751;28;20493;-70
2022/08/13 06:39:44;;;;;;;0.00;0.00;;;;;;;20.19;67.05;101629.13;4962206;28;20038;-69
2022/08/13 06:42:09;;;;;;;0.00;0.00;;;;;;;20.29;67.02;101627.09;4956670;28;20053;-69
2022/08/13 06:44:35;;;;;;;0.00;0.00;;;;;;;20.47;62.61;101637.06;4955793;28;20390;-70
2022/08/13 06:47:03;;;;;;;0.00;0.00;;;;;;;20.65;63.34;101634.22;4959947;28;20038;-70
2022/08/13 06:49:30;;;;;;;0.00;0.00;;;;;;;20.83;62.44;101625.91;4961831;28;20030;-71
2022/08/13 06:51:56;;;;;;;0.00;0.00;;;;;;;21.05;61.70;101629.88;4960437;28;20145;-71
2022/08/13 06:54:23;;;;;;;0.00;0.00;;;;;;;21.17;61.59;101629.53;4955470;28;21955;-71
2022/08/13 06:56:49;;;;;;;0.00;0.00;;;;;;;21.32;61.14;101618.78;4961838;28;20034;-71
2022/08/13 06:59:15;;;;;;;0.00;0.00;;;;;;;21.49;58.22;101625.91;4960616;28;20035;-70
2022/08/13 07:01:41;;;;;;;0.00;0.00;;;;;;;21.69;56.50;101633.78;4955487;28;20435;-70
2022/08/13 07:04:10;;;;;;;0.00;0.00;;;;;;;21.88;57.29;101638.00;4961458;28;20035;-70
2022/08/13 07:06:36;;;;;;;0.03;0.03;;;;;;;22.00;56.03;101636.56;4965166;28;20027;-71
2022/08/13 07:09:02;;;;;;;0.00;0.00;;;;;;;22.22;56.41;101636.00;4968130;28;20042;-70
2022/08/13 07:11:29;;;;;;;0.00;0.00;;;;;;;22.33;54.41;101638.34;4965564;28;20582;-71
2022/08/13 07:13:57;;;;;;;0.00;0.00;;;;;;;22.40;54.08;101631.09;4962885;28;20150;-71
2022/08/13 07:16:24;;;;;;;0.00;0.00;;;;;;;22.60;54.74;101641.66;4963042;28;20560;-71
2022/08/13 07:18:50;;;;;;;0.00;0.00;;;;;;;22.76;54.93;101640.72;4963561;28;20403;-71
2022/08/13 07:21:20;;;;;;;0.00;0.00;;;;;;;22.90;53.25;101644.56;4950057;28;20089;-70
2022/08/13 07:23:47;;;;;;;0.00;0.00;;;;;;;22.97;52.69;101648.25;4965183;28;20486;-70
2022/08/13 07:26:13;;;;;;;0.00;0.00;;;;;;;23.13;52.22;101651.91;4964956;28;20127;-71
2022/08/13 07:28:46;;;;;;;0.00;0.00;;;;;;;23.09;51.43;101651.41;4967155;28;20037;-72
2022/08/13 07:31:13;;;;;;;0.00;0.00;;;;;;;23.16;50.33;101657.84;4959847;28;20048;-71
2022/08/13 07:33:47;;;;;;;0.00;0.00;;;;;;;23.22;51.61;101650.81;4961377;28;20065;-72
2022/08/13 07:36:12;;;;;;;;;;;;;;;23.10;50.15;101646.78;4967844;28;20121;-71
2022/08/13 07:38:38;;;;;;;0.00;0.00;;;;;;;23.06;52.92;101640.81;4956602;28;20012;-72
2022/08/13 07:41:04;;;;;;;0.00;0.00;;;;;;;23.22;51.49;101648.06;4957260;28;20299;-73
2022/08/13 07:43:32;;;;;;;0.00;0.00;;;;;;;23.34;49.23;101651.22;4957859;28;20050;-72
2022/08/13 07:46:07;;;;;;;0.00;0.00;;;;;;;23.44;50.10;101638.13;4965281;28;20038;-72
2022/08/13 07:48:34;;;;;;;0.00;0.00;;;;;;;23.54;48.46;101645.25;4963608;28;20027;-69
2022/08/13 07:51:00;;;;;;;0.00;0.00;;;;;;;23.59;48.80;101638.16;4960790;28;20071;-72
2022/08/13 07:53:26;;;;;;;0.00;0.00;;;;;;;23.64;48.44;101649.41;4960435;28;20127;-72
2022/08/13 07:55:52;;;;;;;0.00;0.00;;;;;;;23.75;48.42;101634.41;4963403;28;20478;-72
2022/08/13 07:58:18;;;;;;;0.00;0.00;;;;;;;23.88;49.42;101638.34;4961706;28;20039;-71
2022/08/13 08:00:45;;;;;;;0.00;0.00;;;;;;;23.90;50.36;101642.63;4967673;28;20038;-72
2022/08/13 08:03:12;;;;;;;0.00;0.00;;;;;;;24.00;50.31;101636.03;4961593;28;20033;-71
2022/08/13 08:05:38;;;;;;;0.00;0.00;;;;;;;24.12;50.84;101640.00;4960584;28;20035;-72
2022/08/13 08:08:04;;;;;;;0.00;0.00;;;;;;;24.13;47.62;101641.72;4956576;28;20069;-73
2022/08/13 08:10:30;;;;;;;0.00;0.00;;;;;;;24.07;49.01;101646.06;4957229;28;20042;-72
2022/08/13 08:13:00;;;;;;;0.00;0.00;;;;;;;24.18;48.26;101647.47;4962026;28;20088;-72
2022/08/13 08:15:27;;;;;;;0.00;0.00;;;;;;;24.11;47.94;101636.41;4964138;28;20030;-72
2022/08/13 08:17:58;;;;;;;0.00;0.00;;;;;;;24.46;48.79;101652.28;4966173;28;20039;-72
2022/08/13 08:20:23;;;;;;;0.00;0.00;;;;;;;24.31;48.43;101627.59;4967357;28;20022;-72
2022/08/13 08:22:50;;;;;;;0.00;0.00;;;;;;;24.48;48.94;101638.34;4957189;28;20027;-72
2022/08/13 08:25:19;;;;;;;0.00;0.00;;;;;;;24.71;46.17;101650.03;4957136;28;20097;-72
2022/08/13 08:27:45;;;;;;;0.10;0.00;;;;;;;24.91;47.92;101643.91;4956752;28;20722;-73
2022/08/13 08:30:18;;;;;;;0.00;0.00;;;;;;;25.10;46.22;101664.38;4964838;28;20038;-71
2022/08/13 08:32:52;;;;;;;0.00;0.00;;;;;;;25.02;47.90;101650.81;4963855;28;20034;-70
2022/08/13 08:35:19;;;;;;;0.00;0.00;;;;;;;25.19;47.26;101658.75;4965168;28;20072;-70
2022/08/13 08:43:12;;;;;;;;;;;;;;;25.29;43.52;101659.28;4960101;28;20057;-71
2022/08/13 08:45:39;;;;;;;0.00;0.00;;;;;;;25.37;46.26;101659.13;4956688;28;19922;-71
2022/08/13 08:48:05;;;;;;;0.00;0.00;;;;;;;25.66;47.66;101648.19;4953128;28;20285;-70
2022/08/13 08:50:30;;;;;;;0.00;0.00;;;;;;;25.74;44.97;101657.13;4959819;28;20065;-71
2022/08/13 08:55:43;;;;;;;0.00;0.00;;;;;;;26.09;43.07;101649.94;4959075;28;20508;-71
2022/08/13 08:58:10;;;;;;;0.00;0.00;;;;;;;26.26;44.46;101654.06;4956476;28;20045;-71
2022/08/13 09:00:36;;;;;;;0.00;0.00;;;;;;;26.41;43.86;101651.16;4959286;28;20553;-70
2022/08/13 09:03:03;;;;;;;0.00;0.00;;;;;;;26.59;41.99;101646.97;4955224;28;20035;-70
2022/08/13 09:05:28;;;;;;;0.00;0.00;;;;;;;26.71;43.17;101647.22;4958635;28;20109;-70
2022/08/13 09:07:54;;;;;;;0.00;0.00;;;;;;;26.77;42.32;101647.22;4960990;28;20534;-71
2022/08/13 09:10:22;;;;;;;0.00;0.00;;;;;;;26.83;41.53;101636.47;4960135;28;20046;-68
2022/08/13 09:12:50;;;;;;;0.00;0.00;;;;;;;26.95;42.91;101643.06;4955781;28;20407;-69
2022/08/13 09:15:18;;;;;;;0.00;0.00;;;;;;;26.91;41.21;101644.53;4962937;28;20034;-69
2022/08/13 09:17:43;;;;;;;0.00;0.00;;;;;;;27.00;44.88;101640.53;4960294;28;20071;-70
2022/08/13 09:20:14;;;;;;;0.00;0.00;;;;;;;27.18;41.48;101641.81;4980752;23;20030;-70
2022/08/13 09:22:41;;;;;;;0.00;0.00;;;;;;;27.17;40.65;101634.59;4965427;28;20019;-69
2022/08/13 09:25:08;;;;;;;0.00;0.00;;;;;;;27.29;41.79;101638.41;4962588;28;20031;-69
2022/08/13 09:27:34;;;;;;;0.00;0.00;;;;;;;27.40;42.17;101640.53;4964812;28;20034;-70
2022/08/13 09:30:00;;;;;;;0.00;0.00;;;;;;;27.60;41.36;101639.69;4962498;28;20375;-70
2022/08/13 09:32:28;;;;;;;0.00;0.00;;;;;;;27.87;41.67;101636.06;4942989;28;20497;-70
2022/08/13 09:34:53;;;;;;;0.00;0.00;;;;;;;28.07;41.57;101636.84;4959748;28;20541;-71
2022/08/13 09:37:19;;;;;;;0.00;0.00;;;;;;;28.03;39.03;101640.25;4957772;28;20031;-70
2022/08/13 09:39:54;;;;;;;0.00;0.00;;;;;;;28.23;40.01;101627.25;4960930;28;20060;-70
2022/08/13 09:42:25;;;;;;;0.00;0.00;;;;;;;28.46;40.77;101631.41;4958870;28;20030;-70
2022/08/13 09:44:56;;;;;;;0.00;0.00;;;;;;;28.58;37.80;101624.13;4958371;28;20038;-71
2022/08/13 09:47:22;;;;;;;0.00;0.00;;;;;;;28.61;38.06;101622.81;4960715;28;20540;-70
2022/08/13 09:49:48;;;;;;;0.00;0.00;;;;;;;28.76;37.13;101621.69;4969703;28;20022;-68
2022/08/13 09:52:14;;;;;;;0.00;0.00;;;;;;;28.92;37.82;101617.53;4961475;28;20054;-69
2022/08/13 09:54:41;;;;;;;0.00;0.00;;;;;;;28.87;37.46;101605.22;4962430;28;20069;-68
2022/08/13 09:57:06;;;;;;;0.00;0.00;;;;;;;28.97;35.05;101614.94;4955045;28;20039;-70
2022/08/13 09:59:32;;;;;;;0.00;0.00;;;;;;;28.91;36.77;101605.66;4960547;28;20450;-69
2022/08/13 10:01:58;;;;;;;0.00;0.00;;;;;;;29.17;37.29;101606.50;4961373;28;20082;-67
2022/08/13 10:04:26;;;;;;;0.00;0.00;;;;;;;29.34;35.71;101617.84;4957676;28;20027;-67
2022/08/13 10:06:51;;;;;;;0.00;0.00;;;;;;;29.27;36.68;101614.28;4957854;28;20062;-68
2022/08/13 10:09:17;;;;;;;0.00;0.00;;;;;;;29.48;36.21;101615.84;4961997;28;20058;-67
2022/08/13 10:11:42;;;;;;;0.00;0.00;;;;;;;29.81;35.33;101614.63;4959292;28;20061;-68
2022/08/13 10:14:08;;;;;;;0.00;0.00;;;;;;;29.95;34.29;101601.47;4962691;28;20129;-67
2022/08/13 10:16:35;;;;;;;0.00;0.00;;;;;;;30.03;34.93;101608.66;4964308;28;20026;-69
2022/08/13 10:19:02;;;;;;;0.00;0.00;;;;;;;29.86;34.02;101592.63;4957079;28;20686;-70
2022/08/13 10:21:28;;;;;;;0.00;0.00;;;;;;;30.10;35.20;101591.97;4958008;28;20591;-70
2022/08/13 10:23:53;;;;;;;0.00;0.00;;;;;;;30.40;34.03;101582.84;4960167;28;20030;-68
2022/08/13 10:26:19;;;;;;;0.00;0.00;;;;;;;30.40;33.30;101588.38;4960039;28;20479;-68
2022/08/13 10:28:47;;;;;;;0.00;0.00;;;;;;;30.33;33.60;101585.69;4958652;28;20085;-69
2022/08/13 10:31:12;;;;;;;0.00;0.00;;;;;;;29.91;35.40;101591.97;4962512;28;20089;-69
2022/08/13 10:33:38;;;;;;;0.00;0.00;;;;;;;30.44;33.88;101586.84;4964885;28;20113;-69
2022/08/13 10:36:05;;;;;;;0.00;0.00;;;;;;;29.95;33.10;101586.78;4959367;28;20484;-67
2022/08/13 10:38:32;;;;;;;0.05;0.00;;;;;;;30.36;33.65;101579.66;4964821;28;20038;-69
2022/08/13 10:41:00;;;;;;;0.00;0.00;;;;;;;30.62;31.82;101580.41;4966327;28;20445;-69
2022/08/13 10:43:26;;;;;;;0.00;0.00;;;;;;;30.94;32.01;101588.44;4966226;28;20026;-69
2022/08/13 10:45:58;;;;;;;0.00;0.00;;;;;;;31.16;32.08;101585.09;4968236;28;20023;-68
2022/08/13 10:48:25;;;;;;;0.00;0.00;;;;;;;31.26;31.34;101583.41;4967540;28;20113;-68
2022/08/13 10:50:52;;;;;;;0.00;0.00;;;;;;;31.52;31.62;101580.41;4967672;28;20442;-67
2022/08/13 10:56:01;;;;;;;0.00;0.00;;;;;;;31.22;30.44;101590.56;4967310;28;20485;-69
2022/08/13 10:58:26;;;;;;;0.00;0.00;;;;;;;31.56;29.91;101545.53;4969653;28;20525;-68
2022/08/13 11:00:52;;;;;;;0.00;0.00;;;;;;;32.08;31.06;101578.00;4963405;28;20660;-67
2022/08/13 11:03:18;;;;;;;0.00;0.00;;;;;;;32.25;29.44;101578.06;4962161;28;20110;-70
2022/08/13 11:05:43;;;;;;;0.00;0.00;;;;;;;32.07;28.35;101581.03;4964829;28;20026;-64
2022/08/13 11:08:12;;;;;;;0.00;0.00;;;;;;;31.57;30.35;101573.03;4964458;28;20099;-67
2022/08/13 11:10:38;;;;;;;0.00;0.00;;;;;;;31.66;30.15;101578.22;4963213;28;20030;-68
2022/08/13 11:13:05;;;;;;;0.00;0.00;;;;;;;32.40;29.15;101579.50;4964659;28;20097;-66
2022/08/13 11:15:31;;;;;;;0.00;0.00;;;;;;;32.60;28.94;101573.44;4963075;28;20050;-68
2022/08/13 11:17:57;;;;;;;0.00;0.00;;;;;;;32.04;28.80;101575.97;4964290;28;20073;-67
2022/08/13 11:20:24;;;;;;;0.00;0.00;;;;;;;32.29;29.81;101570.97;4964206;28;20027;-67
2022/08/13 11:22:52;;;;;;;0.00;0.00;;;;;;;31.85;31.02;101571.44;4964828;28;20030;-66
2022/08/13 11:25:18;;;;;;;0.00;0.00;;;;;;;31.73;29.20;101578.97;4966047;28;20471;-66
2022/08/13 11:27:44;;;;;;;0.00;0.00;;;;;;;31.49;27.26;101558.69;4964069;28;20031;-67
2022/08/13 11:30:10;;;;;;;0.00;0.00;;;;;;;32.36;28.03;101565.25;4959979;28;20038;-68
2022/08/13 11:32:35;;;;;;;0.00;0.00;;;;;;;33.01;29.27;101538.03;4965344;28;20043;-68
2022/08/13 11:35:01;;;;;;;0.05;0.00;;;;;;;32.21;30.74;101551.88;4963373;28;20498;-66
2022/08/13 11:37:27;;;;;;;0.00;0.00;;;;;;;32.64;28.83;101551.56;4962201;28;20043;-66
2022/08/13 11:39:52;;;;;;;0.00;0.00;;;;;;;33.09;28.96;101544.28;4963907;28;20034;-66
2022/08/13 11:42:17;;;;;;;0.00;0.00;;;;;;;33.62;28.92;101539.19;4961713;28;20031;-67
2022/08/13 11:44:43;;;;;;;0.00;0.00;;;;;;;34.15;26.24;101544.31;4967608;28;20031;-68
2022/08/13 11:47:08;;;;;;;0.00;0.00;;;;;;;33.93;25.64;101551.56;4961095;28;20035;-65
2022/08/13 11:49:33;;;;;;;0.00;0.00;;;;;;;32.94;26.30;101550.44;4962620;28;20517;-66
2022/08/13 11:51:59;;;;;;;0.00;0.00;;;;;;;33.29;26.89;101547.34;4965559;28;20031;-66